Time;durP1;ratioP1;P1;durP2;ratioP2;P2;SDS_P1;SDS_P2;PMS_P1;PMS_P2;Temp;Humidity;BMP_temperature;BMP_pressure;BME280_temperature;BME280_humidity;BME280_pressure;Samples;Min_cycle;Max_cycle;Signal;HPM_P1;HPM_P2
2022/09/08 00:00:09;;;;;;;;;;;;;;;14.34;100.00;98053.66;5075602;28;19925;-80
2022/09/08 00:02:37;;;;;;;;;;;;;;;14.48;100.00;98045.81;5057587;28;20296;-80
2022/09/08 00:05:05;;;;;;;;;;;;;;;14.44;100.00;98043.94;5075172;28;19928;-79
2022/09/08 00:07:32;;;;;;;;;;;;;;;14.36;100.00;98045.53;5075438;28;20019;-80
2022/09/08 00:10:00;;;;;;;;;;;;;;;14.11;100.00;98048.69;5057616;28;19925;-79
2022/09/08 00:12:28;;;;;;;;;;;;;;;14.28;100.00;98038.69;5041291;28;20298;-80
2022/09/08 00:14:57;;;;;;;;;;;;;;;13.94;100.00;98041.06;5040433;28;19928;-80
2022/09/08 00:17:24;;;;;;;;;;;;;;;14.14;100.00;98035.72;5040294;28;19974;-80
2022/09/08 00:19:51;;;;;;;;;;;;;;;13.87;100.00;98030.94;5056608;28;19924;-79
2022/09/08 00:22:18;;;;;;;;;;;;;;;13.43;100.00;98040.16;5039371;28;19936;-80
2022/09/08 00:24:45;;;;;;;;;;;;;;;13.93;100.00;98034.66;5056708;28;19946;-80
2022/09/08 00:27:12;;;;;;;;;;;;;;;14.29;100.00;98039.47;5023766;28;19932;-80
2022/09/08 00:29:39;;;;;;;;;;;;;;;14.57;100.00;98032.47;5056797;28;19924;-80
2022/09/08 00:32:06;;;;;;;;;;;;;;;14.58;100.00;98030.47;5074979;28;19925;-80
2022/09/08 00:34:34;;;;;;;;;;;;;;;14.40;100.00;98032.06;5074750;28;19932;-79
2022/09/08 00:37:02;;;;;;;;;;;;;;;14.29;100.00;98028.22;5074845;28;19924;-80
2022/09/08 00:39:29;;;;;;;;;;;;;;;14.56;100.00;98025.31;5039762;28;19928;-80
2022/09/08 00:41:56;;;;;;;;;;;;;;;14.63;100.00;98024.97;5057096;28;20390;-80
2022/09/08 00:44:48;;;;;;;;;;;;;;;14.80;100.00;98023.31;5074827;28;19925;-80
2022/09/08 00:47:26;;;;;;;;;;;;;;;15.02;100.00;98023.06;5074442;28;19931;-80
2022/09/08 00:50:00;;;;;;;;;;;;;;;14.94;100.00;98019.03;5040102;28;19924;-80
2022/09/08 00:52:30;;;;;;;;;;;;;;;14.73;100.00;98020.09;5056832;28;19924;-80
2022/09/08 00:55:16;;;;;;;;;;;;;;;14.86;100.00;98010.16;5074944;28;19931;-79
2022/09/08 00:57:43;;;;;;;;;;;;;;;14.77;100.00;98021.47;5056705;28;19947;-80
2022/09/08 01:00:12;;;;;;;;;;;;;;;14.32;100.00;98018.84;5040197;28;19932;-79
2022/09/08 01:02:39;;;;;;;;;;;;;;;14.23;100.00;98016.84;5074231;28;19925;-80
2022/09/08 01:05:09;;;;;;;;;;;;;;;14.46;100.00;98009.75;5056465;28;20281;-80
2022/09/08 01:13:24;;;;;;;;;;;;;;;14.75;100.00;98021.19;5056107;28;20357;-80
2022/09/08 01:15:51;;;;;;;;;;;;;;;14.82;100.00;98015.19;5056359;28;20376;-80
2022/09/08 01:18:18;;;;;;;;;;;;;;;14.78;100.00;98017.41;5073800;28;19934;-79
2022/09/08 01:21:06;;;;;;;;;;;;;;;14.82;100.00;98020.81;5074040;28;19924;-79
2022/09/08 01:23:52;;;;;;;;;;;;;;;14.56;100.00;98018.91;5073781;28;19924;-80
2022/09/08 01:26:39;;;;;;;;;;;;;;;14.71;100.00;98017.75;5056025;28;19934;-80
2022/09/08 01:29:07;;;;;;;;;;;;;;;14.76;100.00;98022.72;5073871;28;20332;-80
2022/09/08 01:31:37;;;;;;;;;;;;;;;14.56;100.00;98021.72;5039150;28;20346;-80
2022/09/08 01:34:04;;;;;;;;;;;;;;;14.73;100.00;98012.44;5073752;28;19946;-80
2022/09/08 01:36:31;;;;;;;;;;;;;;;14.27;100.00;98016.66;5073672;28;19970;-80
2022/09/08 01:38:58;;;;;;;;;;;;;;;14.70;100.00;98019.00;5055831;28;19930;-80
2022/09/08 01:41:25;;;;;;;;;;;;;;;14.17;100.00;98015.13;5073534;28;19982;-80
2022/09/08 01:43:52;;;;;;;;;;;;;;;14.72;100.00;98016.50;5073484;28;19930;-80
2022/09/08 01:46:19;;;;;;;;;;;;;;;14.62;100.00;98012.16;5073270;28;19928;-80
2022/09/08 01:48:46;;;;;;;;;;;;;;;14.68;100.00;98013.06;5039195;28;19925;-80
2022/09/08 01:51:13;;;;;;;;;;;;;;;14.81;100.00;98008.03;5055660;28;19924;-80
2022/09/08 01:53:40;;;;;;;;;;;;;;;14.87;100.00;98011.75;5055944;28;19925;-80
2022/09/08 01:56:08;;;;;;;;;;;;;;;14.92;100.00;98001.88;5073403;28;19978;-80
2022/09/08 01:58:35;;;;;;;;;;;;;;;14.91;100.00;98006.72;5055421;28;20299;-80
2022/09/08 02:01:02;;;;;;;;;;;;;;;14.98;100.00;98006.34;5055208;28;20384;-80
2022/09/08 02:03:29;;;;;;;;;;;;;;;14.39;100.00;98010.06;5038783;28;20264;-80
2022/09/08 02:06:01;;;;;;;;;;;;;;;14.33;100.00;98011.97;5054747;28;19974;-80
2022/09/08 02:08:28;;;;;;;;;;;;;;;14.82;100.00;97997.53;5038502;28;19929;-80
2022/09/08 02:10:58;;;;;;;;;;;;;;;15.05;100.00;98008.81;5073135;28;19978;-80
2022/09/08 02:13:26;;;;;;;;;;;;;;;15.11;100.00;98009.72;5055412;28;19928;-80
2022/09/08 02:16:04;;;;;;;;;;;;;;;15.10;100.00;98004.56;5054955;28;19924;-80
2022/09/08 02:18:32;;;;;;;;;;;;;;;14.89;100.00;98005.66;5055276;28;20319;-80
2022/09/08 02:21:10;;;;;;;;;;;;;;;14.89;100.00;97997.22;5055180;28;19974;-79
2022/09/08 02:23:39;;;;;;;;;;;;;;;15.10;100.00;97993.31;5072983;28;19930;-80
2022/09/08 02:26:07;;;;;;;;;;;;;;;14.25;100.00;97993.91;5055343;28;20342;-80
2022/09/08 02:28:34;;;;;;;;;;;;;;;14.65;100.00;97988.72;5054924;28;20376;-80
2022/09/08 02:31:01;;;;;;;;;;;;;;;15.04;100.00;97987.56;5054862;28;19932;-80
2022/09/08 02:33:30;;;;;;;;;;;;;;;15.07;100.00;97986.59;5072881;28;20026;-80
2022/09/08 02:35:57;;;;;;;;;;;;;;;14.74;100.00;97985.13;5055243;28;19925;-80
2022/09/08 02:38:24;;;;;;;;;;;;;;;14.99;100.00;97982.59;5055116;28;20256;-80
2022/09/08 02:40:51;;;;;;;;;;;;;;;15.17;100.00;97979.66;5055074;28;19924;-80
2022/09/08 02:43:20;;;;;;;;;;;;;;;15.23;100.00;97974.94;5054884;28;19935;-80
2022/09/08 02:45:47;;;;;;;;;;;;;;;15.26;100.00;97968.34;5039601;28;19925;-80
2022/09/08 02:48:14;;;;;;;;;;;;;;;15.40;100.00;97961.22;5077083;28;20284;-80
2022/09/08 02:50:42;;;;;;;;;;;;;;;15.15;100.00;97965.28;5059053;28;19925;-80
2022/09/08 02:53:09;;;;;;;;;;;;;;;15.47;100.00;97961.63;5076886;28;19928;-80
2022/09/08 02:55:37;;;;;;;;;;;;;;;15.29;100.00;97967.38;5042329;28;20449;-80
2022/09/08 02:58:06;;;;;;;;;;;;;;;15.42;100.00;97970.72;5058825;28;19972;-80
2022/09/08 03:00:34;;;;;;;;;;;;;;;15.64;100.00;97971.19;5059140;28;19931;-80
2022/09/08 03:03:02;;;;;;;;;;;;;;;15.85;100.00;97966.44;5076718;28;19978;-80
2022/09/08 03:05:30;;;;;;;;;;;;;;;16.00;100.00;97959.53;5058993;28;20308;-80
2022/09/08 03:07:57;;;;;;;;;;;;;;;16.02;100.00;97953.41;5076641;28;19977;-80
2022/09/08 03:10:25;;;;;;;;;;;;;;;16.01;100.00;97961.09;5042119;28;19924;-80
2022/09/08 03:12:53;;;;;;;;;;;;;;;15.29;100.00;97960.97;5076234;28;19990;-80
2022/09/08 03:15:20;;;;;;;;;;;;;;;15.79;100.00;97957.88;5058563;28;19924;-80
2022/09/08 03:17:47;;;;;;;;;;;;;;;15.61;100.00;97966.50;5076324;28;20015;-80
2022/09/08 03:20:16;;;;;;;;;;;;;;;16.07;100.00;97961.94;5058706;28;19971;-80
2022/09/08 03:22:44;;;;;;;;;;;;;;;15.99;100.00;97960.78;5076319;28;19925;-80
2022/09/08 03:25:11;;;;;;;;;;;;;;;16.13;100.00;97959.22;5041782;28;19924;-80
2022/09/08 03:27:38;;;;;;;;;;;;;;;16.16;100.00;97975.19;5075923;28;20015;-80
2022/09/08 03:30:06;;;;;;;;;;;;;;;16.24;100.00;97971.47;5058503;28;19977;-80
2022/09/08 03:32:34;;;;;;;;;;;;;;;16.28;100.00;97963.59;5058416;28;20019;-80
2022/09/08 03:35:02;;;;;;;;;;;;;;;16.30;100.00;97965.16;5076216;28;19957;-80
2022/09/08 03:37:29;;;;;;;;;;;;;;;16.37;100.00;97970.38;5075972;28;19928;-80
2022/09/08 03:39:56;;;;;;;;;;;;;;;16.26;100.00;97956.91;5075922;28;19925;-80
2022/09/08 03:42:23;;;;;;;;;;;;;;;15.74;100.00;97966.22;5075546;28;19925;-80
2022/09/08 03:44:50;;;;;;;;;;;;;;;15.56;100.00;97975.63;5058246;28;20299;-80
2022/09/08 03:47:17;;;;;;;;;;;;;;;15.80;100.00;97973.50;5075869;28;20407;-80
2022/09/08 03:49:45;;;;;;;;;;;;;;;16.11;100.00;97970.97;5041495;28;19947;-80
2022/09/08 03:52:13;;;;;;;;;;;;;;;16.31;100.00;97969.53;5057840;28;19925;-80
2022/09/08 03:54:50;;;;;;;;;;;;;;;16.38;100.00;97969.91;5075755;28;19955;-80
2022/09/08 03:57:20;;;;;;;;;;;;;;;16.54;100.00;97968.66;5056497;28;19924;-80
2022/09/08 03:59:49;;;;;;;;;;;;;;;16.29;100.00;97967.19;5041213;28;19931;-80
2022/09/08 04:02:17;;;;;;;;;;;;;;;16.44;100.00;97962.34;5041344;28;19925;-80
2022/09/08 04:04:47;;;;;;;;;;;;;;;16.48;100.00;97964.97;5057656;28;19925;-80
2022/09/08 04:07:14;;;;;;;;;;;;;;;16.50;100.00;97965.22;5024581;28;19970;-80
2022/09/08 04:09:41;;;;;;;;;;;;;;;16.45;100.00;97969.50;5057467;28;20372;-80
2022/09/08 04:12:08;;;;;;;;;;;;;;;16.27;100.00;97970.50;5040621;28;19970;-80
2022/09/08 04:14:36;;;;;;;;;;;;;;;16.42;100.00;97967.66;5041046;28;20023;-80
2022/09/08 04:17:03;;;;;;;;;;;;;;;16.58;100.00;97960.75;5057506;28;19925;-80
2022/09/08 04:19:30;;;;;;;;;;;;;;;16.68;100.00;97960.13;5040814;28;19929;-80
2022/09/08 04:21:56;;;;;;;;;;;;;;;16.76;100.00;97954.84;5057657;28;19932;-80
2022/09/08 04:24:24;;;;;;;;;;;;;;;16.75;100.00;97945.59;5040579;28;19925;-80
2022/09/08 04:26:51;;;;;;;;;;;;;;;16.53;100.00;97950.94;5074902;28;19931;-80
2022/09/08 04:29:18;;;;;;;;;;;;;;;15.92;100.00;97960.41;5040613;28;19983;-80
2022/09/08 04:31:46;;;;;;;;;;;;;;;16.12;100.00;97958.47;5074963;28;20376;-80
2022/09/08 04:34:14;;;;;;;;;;;;;;;16.04;100.00;97962.94;5040715;28;19925;-80
2022/09/08 04:36:41;;;;;;;;;;;;;;;16.17;100.00;97965.44;5074980;28;19925;-80
2022/09/08 04:39:09;;;;;;;;;;;;;;;16.23;100.00;97953.03;5057099;28;19924;-80
2022/09/08 04:41:36;;;;;;;;;;;;;;;16.37;100.00;97950.66;5057093;28;19925;-80
2022/09/08 04:44:06;;;;;;;;;;;;;;;16.25;100.00;97952.53;5076007;28;20375;-80
2022/09/08 04:46:34;;;;;;;;;;;;;;;16.02;100.00;97951.34;5058241;28;19924;-80
2022/09/08 04:49:01;;;;;;;;;;;;;;;15.61;100.00;97960.09;5058426;28;19924;-79
2022/09/08 04:51:29;;;;;;;;;;;;;;;15.98;100.00;97950.78;5057980;28;19924;-80
2022/09/08 04:53:56;;;;;;;;;;;;;;;15.69;100.00;97953.59;5075342;28;19947;-80
2022/09/08 04:56:24;;;;;;;;;;;;;;;15.90;100.00;97955.25;5058184;28;20310;-80
2022/09/08 04:58:52;;;;;;;;;;;;;;;16.08;100.00;97946.59;5075710;28;20403;-80
2022/09/08 05:01:23;;;;;;;;;;;;;;;16.24;100.00;97932.00;5057550;28;19931;-80
2022/09/08 05:03:51;;;;;;;;;;;;;;;16.34;100.00;97943.19;5057538;28;20360;-80
2022/09/08 05:06:18;;;;;;;;;;;;;;;16.27;100.00;97940.78;5057697;28;19925;-80
2022/09/08 05:08:46;;;;;;;;;;;;;;;16.35;100.00;97939.09;5073279;28;19924;-80
2022/09/08 05:11:14;;;;;;;;;;;;;;;16.35;100.00;97944.72;5075149;28;19925;-80
2022/09/08 05:13:41;;;;;;;;;;;;;;;16.35;100.00;97942.69;5057383;28;19924;-80
2022/09/08 05:16:10;;;;;;;;;;;;;;;16.21;100.00;97944.28;5073513;28;20043;-80
2022/09/08 05:18:37;;;;;;;;;;;;;;;16.32;100.00;97942.88;5066264;28;19928;-80
2022/09/08 05:21:06;;;;;;;;;;;;;;;16.20;100.00;97939.91;5057259;28;19925;-80
2022/09/08 05:23:33;;;;;;;;;;;;;;;16.25;100.00;97950.47;5055975;28;19924;-80
2022/09/08 05:26:02;;;;;;;;;;;;;;;16.24;100.00;97942.50;5074176;28;20276;-80
2022/09/08 05:28:30;;;;;;;;;;;;;;;16.24;100.00;97948.13;5040344;28;20486;-80
2022/09/08 05:30:59;;;;;;;;;;;;;;;16.52;100.00;97945.78;5074411;28;19924;-79
2022/09/08 05:33:26;;;;;;;;;;;;;;;16.55;100.00;97934.31;5074651;28;19928;-79
2022/09/08 05:35:53;;;;;;;;;;;;;;;16.25;100.00;97939.19;5040407;28;19942;-80
2022/09/08 05:38:20;;;;;;;;;;;;;;;16.30;100.00;97928.53;5074595;28;20050;-80
2022/09/08 05:40:47;;;;;;;;;;;;;;;16.56;100.00;97935.06;5056959;28;19975;-80
2022/09/08 05:43:14;;;;;;;;;;;;;;;16.23;100.00;97938.94;5073388;28;19934;-80
2022/09/08 05:45:48;;;;;;;;;;;;;;;16.02;100.00;97936.50;5056725;28;19960;-80
2022/09/08 05:48:16;;;;;;;;;;;;;;;16.09;100.00;97948.16;5040360;28;19925;-80
2022/09/08 05:50:46;;;;;;;;;;;;;;;16.32;100.00;97948.50;5056802;28;20413;-80
2022/09/08 05:53:13;;;;;;;;;;;;;;;15.94;100.00;97947.41;5056594;28;19962;-79
2022/09/08 05:55:53;;;;;;;;;;;;;;;16.36;100.00;97947.06;5056612;28;19924;-80
2022/09/08 05:58:21;;;;;;;;;;;;;;;16.36;100.00;97949.13;5056792;28;19928;-80
2022/09/08 06:00:53;;;;;;;;;;;;;;;16.34;100.00;97938.31;5074349;28;20011;-80
2022/09/08 06:03:20;;;;;;;;;;;;;;;16.51;100.00;97932.97;5039725;28;20368;-80
2022/09/08 06:05:47;;;;;;;;;;;;;;;16.60;100.00;97924.38;5074261;28;19924;-80
2022/09/08 06:08:14;;;;;;;;;;;;;;;16.45;100.00;97929.28;5039656;28;19924;-80
2022/09/08 06:10:41;;;;;;;;;;;;;;;16.69;100.00;97922.19;5072912;28;19924;-80
2022/09/08 06:13:11;;;;;;;;;;;;;;;16.75;100.00;97931.50;5074155;28;19978;-80
2022/09/08 06:15:38;;;;;;;;;;;;;;;16.66;100.00;97933.69;5074131;28;19970;-80
2022/09/08 06:18:05;;;;;;;;;;;;;;;16.62;100.00;97922.63;5039854;28;19924;-80
2022/09/08 06:20:32;;;;;;;;;;;;;;;16.53;100.00;97931.19;5055486;28;19929;-80
2022/09/08 06:22:59;;;;;;;;;;;;;;;16.59;100.00;97937.69;5055975;28;19925;-80
2022/09/08 06:25:26;;;;;;;;;;;;;;;16.64;100.00;97922.13;5056433;28;19964;-80
2022/09/08 06:28:04;;;;;;;;;;;;;;;16.75;100.00;97930.75;5056342;28;19924;-80
2022/09/08 06:30:31;;;;;;;;;;;;;;;16.80;100.00;97927.22;5056558;28;19954;-80
2022/09/08 06:33:10;;;;;;;;;;;;;;;16.81;100.00;97923.16;5023087;28;20285;-80
2022/09/08 06:35:42;;;;;;;;;;;;;;;16.71;100.00;97924.53;5055969;28;19963;-80
2022/09/08 06:38:24;;;;;;;;;;;;;;;16.60;100.00;97908.22;5056235;28;19932;-79
2022/09/08 06:40:58;;;;;;;;;;;;;;;16.24;100.00;97920.75;5056587;28;19930;-79
2022/09/08 06:43:32;;;;;;;;;;;;;;;15.83;100.00;97930.28;5056086;28;19924;-79
2022/09/08 06:46:04;;;;;;;;;;;;;;;15.93;100.00;97928.94;5074146;28;19924;-80
2022/09/08 06:48:36;;;;;;;;;;;;;;;16.32;100.00;97918.31;5073569;28;19928;-80
2022/09/08 06:51:21;;;;;;;;;;;;;;;16.62;100.00;97919.00;5073554;28;19995;-79
2022/09/08 06:54:07;;;;;;;;;;;;;;;16.65;100.00;97920.84;5073784;28;20318;-79
2022/09/08 06:56:39;;;;;;;;;;;;;;;17.03;100.00;97923.41;5038910;28;19925;-79
2022/09/08 06:59:36;;;;;;;;;;;;;;;17.10;100.00;97935.06;5073564;28;19963;-80
2022/09/08 07:02:07;;;;;;;;;;;;;;;17.15;100.00;97933.56;5073629;28;19924;-80
2022/09/08 07:04:41;;;;;;;;;;;;;;;17.16;100.00;97933.09;5073275;28;19931;-81
2022/09/08 07:07:11;;;;;;;;;;;;;;;16.92;100.00;97932.53;5072431;28;19986;-80
2022/09/08 07:09:49;;;;;;;;;;;;;;;16.83;100.00;97931.88;5074047;28;20019;-80
2022/09/08 07:12:35;;;;;;;;;;;;;;;16.54;100.00;97934.81;5055753;28;19932;-80
2022/09/08 07:15:04;;;;;;;;;;;;;;;16.57;100.00;97937.41;5039469;28;19925;-79
2022/09/08 07:17:31;;;;;;;;;;;;;;;16.26;100.00;97937.16;5039156;28;20028;-79
2022/09/08 07:19:58;;;;;;;;;;;;;;;16.19;100.00;97941.16;5073384;28;19931;-79
2022/09/08 07:22:25;;;;;;;;;;;;;;;15.78;100.00;97945.03;5089253;28;19932;-79
2022/09/08 07:24:56;;;;;;;;;;;;;;;15.84;100.00;97945.16;5073521;28;19930;-80
2022/09/08 07:27:24;;;;;;;;;;;;;;;16.12;100.00;97944.38;5073400;28;19970;-79
2022/09/08 07:29:53;;;;;;;;;;;;;;;16.35;100.00;97931.41;5038964;28;19932;-79
2022/09/08 07:32:30;;;;;;;;;;;;;;;16.31;100.00;97930.84;5075364;28;19924;-79
2022/09/08 07:35:00;;;;;;;;;;;;;;;16.41;100.00;97928.66;5077025;28;19970;-79
2022/09/08 07:37:43;;;;;;;;;;;;;;;16.75;100.00;97937.16;5059539;28;19924;-80
2022/09/08 07:40:16;;;;;;;;;;;;;;;17.05;100.00;97926.53;5059545;28;20276;-80
2022/09/08 07:42:47;;;;;;;;;;;;;;;17.19;100.00;97925.69;5077158;28;19974;-80
2022/09/08 07:45:14;;;;;;;;;;;;;;;17.28;100.00;97923.47;5059463;28;20033;-79
2022/09/08 07:47:59;;;;;;;;;;;;;;;17.42;100.00;97916.19;5076759;28;20698;-80
2022/09/08 07:53:38;;;;;;;;;;;;;;;17.82;100.00;97916.91;5059154;28;19925;-79
2022/09/08 07:56:09;;;;;;;;;;;;;;;18.28;100.00;97911.13;5076898;28;20287;-79
2022/09/08 07:58:56;;;;;;;;;;;;;;;18.87;100.00;97908.47;5076882;28;19931;-80
2022/09/08 08:01:23;;;;;;;;;;;;;;;19.33;100.00;97894.78;5057942;28;20366;-80
2022/09/08 08:04:02;;;;;;;;;;;;;;;19.66;100.00;97887.13;5058257;28;19978;-79
2022/09/08 08:06:32;;;;;;;;;;;;;;;20.09;100.00;97881.22;5058569;28;19929;-80
2022/09/08 08:09:26;;;;;;;;;;;;;;;20.31;100.00;97869.94;5076456;28;19924;-79
2022/09/08 08:11:57;;;;;;;;;;;;;;;20.02;100.00;97871.19;5045813;28;20442;-80
2022/09/08 08:14:46;;;;;;;;;;;;;;;20.02;100.00;97873.25;5042018;28;20340;-79
2022/09/08 08:17:13;;;;;;;;;;;;;;;20.06;100.00;97865.25;5058289;28;20501;-80
2022/09/08 08:20:03;;;;;;;;;;;;;;;19.87;100.00;97869.91;5076412;28;20275;-80
2022/09/08 08:22:35;;;;;;;;;;;;;;;19.58;100.00;97869.06;5076259;28;19939;-79
2022/09/08 08:25:22;;;;;;;;;;;;;;;19.05;100.00;97869.16;5076154;28;19991;-80
2022/09/08 08:28:01;;;;;;;;;;;;;;;19.01;100.00;97874.28;5076287;28;19978;-80
2022/09/08 08:30:36;;;;;;;;;;;;;;;18.49;100.00;97889.97;5076197;28;19974;-79
2022/09/08 08:33:09;;;;;;;;;;;;;;;18.61;100.00;97885.16;5057953;28;20035;-80
2022/09/08 08:35:41;;;;;;;;;;;;;;;18.80;100.00;97886.28;5075972;28;19931;-80
2022/09/08 08:38:12;;;;;;;;;;;;;;;19.14;100.00;97883.13;5041897;28;19931;-79
2022/09/08 08:40:46;;;;;;;;;;;;;;;19.25;100.00;97885.97;5024661;28;19924;-79
2022/09/08 08:43:33;;;;;;;;;;;;;;;18.91;100.00;97880.69;5075214;28;20406;-79
2022/09/08 08:46:06;;;;;;;;;;;;;;;18.54;100.00;97894.13;5075585;28;20779;-79
2022/09/08 08:48:39;;;;;;;;;;;;;;;18.47;100.00;97881.22;5075767;28;19963;-79
2022/09/08 08:51:15;;;;;;;;;;;;;;;18.37;100.00;97885.53;5075576;28;19929;-79
2022/09/08 08:53:45;;;;;;;;;;;;;;;18.89;100.00;97891.72;5075603;28;19924;-79
2022/09/08 08:56:42;;;;;;;;;;;;;;;18.11;100.00;97887.63;5075695;28;19934;-79
2022/09/08 08:59:12;;;;;;;;;;;;;;;18.11;100.00;97893.28;5075601;28;20394;-79
2022/09/08 09:01:42;;;;;;;;;;;;;;;18.77;100.00;97892.94;5075235;28;19928;-79
2022/09/08 09:04:28;;;;;;;;;;;;;;;18.33;100.00;97887.78;5075440;28;19931;-79
2022/09/08 09:07:04;;;;;;;;;;;;;;;19.46;100.00;97895.84;5057450;28;19955;-79
2022/09/08 09:09:31;;;;;;;;;;;;;;;18.81;100.00;97882.94;5057297;28;19929;-79
2022/09/08 09:11:59;;;;;;;;;;;;;;;19.01;100.00;97888.44;5040987;28;19974;-79
2022/09/08 09:14:52;;;;;;;;;;;;;;;18.24;100.00;97896.44;5057219;28;19974;-78
2022/09/08 09:17:53;;;;;;;;;;;;;;;17.58;100.00;97893.03;5038159;28;19931;-79
2022/09/08 09:20:23;;;;;;;;;;;;;;;17.76;100.00;97892.69;5057402;28;19924;-79
2022/09/08 09:22:53;;;;;;;;;;;;;;;17.54;100.00;97889.66;5057193;28;19925;-79
2022/09/08 09:25:35;;;;;;;;;;;;;;;17.47;100.00;97895.75;5057031;28;19978;-79
2022/09/08 09:28:02;;;;;;;;;;;;;;;17.42;100.00;97902.06;5056951;28;19936;-79
2022/09/08 09:30:36;;;;;;;;;;;;;;;17.54;100.00;97898.13;5074488;28;19928;-79
2022/09/08 09:33:09;;;;;;;;;;;;;;;17.76;100.00;97896.31;5040386;28;19930;-79
2022/09/08 09:35:45;;;;;;;;;;;;;;;17.65;100.00;97892.59;5074823;28;19928;-79
2022/09/08 09:38:16;;;;;;;;;;;;;;;18.29;100.00;97894.94;5057062;28;19982;-79
2022/09/08 09:40:52;;;;;;;;;;;;;;;18.38;100.00;97883.47;5056773;28;19948;-79
2022/09/08 09:43:34;;;;;;;;;;;;;;;18.99;100.00;97888.16;5056350;28;20355;-79
2022/09/08 09:46:20;;;;;;;;;;;;;;;18.93;100.00;97889.44;5039931;28;20441;-79
2022/09/08 09:49:22;;;;;;;;;;;;;;;18.66;100.00;97888.00;5074435;28;20398;-79
2022/09/08 09:51:56;;;;;;;;;;;;;;;18.76;100.00;97886.53;5061604;28;19924;-79
2022/09/08 09:54:30;;;;;;;;;;;;;;;18.82;100.00;97895.81;5074302;28;19924;-79
2022/09/08 09:57:17;;;;;;;;;;;;;;;18.69;100.00;97891.91;5074263;28;19925;-79
2022/09/08 09:59:54;;;;;;;;;;;;;;;17.99;100.00;97892.38;5056383;28;20272;-79
2022/09/08 10:02:24;;;;;;;;;;;;;;;17.95;100.00;97891.84;5056367;28;19970;-79
2022/09/08 10:05:09;;;;;;;;;;;;;;;18.52;100.00;97897.47;5056432;28;19932;-79
2022/09/08 10:07:50;;;;;;;;;;;;;;;18.38;100.00;97892.72;5056235;28;19925;-79
2022/09/08 10:10:35;;;;;;;;;;;;;;;18.61;100.00;97888.78;5074135;28;19932;-79
2022/09/08 10:13:22;;;;;;;;;;;;;;;18.50;100.00;97885.09;5055993;28;19924;-78
2022/09/08 10:15:55;;;;;;;;;;;;;;;18.37;100.00;97894.03;5055647;28;19929;-79
2022/09/08 10:18:25;;;;;;;;;;;;;;;18.20;100.00;97890.25;5039643;28;19924;-79
2022/09/08 10:21:11;;;;;;;;;;;;;;;19.09;100.00;97892.34;5039383;28;19929;-79
2022/09/08 10:23:38;;;;;;;;;;;;;;;19.17;100.00;97881.31;5056084;28;19925;-78
2022/09/08 10:26:14;;;;;;;;;;;;;;;19.60;100.00;97888.41;5055709;28;19964;-78
2022/09/08 10:28:56;;;;;;;;;;;;;;;19.45;100.00;97885.81;5073506;28;19933;-79
2022/09/08 10:31:35;;;;;;;;;;;;;;;19.66;100.00;97872.97;5056039;28;19947;-79
2022/09/08 10:34:34;;;;;;;;;;;;;;;19.49;100.00;97877.81;5039401;28;19928;-79
2022/09/08 10:37:05;;;;;;;;;;;;;;;19.90;100.00;97872.50;5023112;28;19970;-78
2022/09/08 10:39:41;;;;;;;;;;;;;;;20.28;100.00;97859.63;5073653;28;20318;-78
2022/09/08 10:42:26;;;;;;;;;;;;;;;20.09;100.00;97859.34;5073400;28;19928;-79
2022/09/08 10:45:15;;;;;;;;;;;;;;;19.93;100.00;97845.94;5055837;28;19929;-79
2022/09/08 10:47:42;;;;;;;;;;;;;;;19.96;100.00;97861.94;5055770;28;19928;-79
2022/09/08 10:50:18;;;;;;;;;;;;;;;19.86;100.00;97854.19;5073586;28;19932;-79
2022/09/08 10:53:00;;;;;;;;;;;;;;;18.92;100.00;97854.69;5073496;28;19931;-79
2022/09/08 10:55:34;;;;;;;;;;;;;;;19.37;100.00;97856.41;5073612;28;19981;-79
2022/09/08 10:58:04;;;;;;;;;;;;;;;20.18;100.00;97847.75;5073537;28;19925;-79
2022/09/08 11:00:40;;;;;;;;;;;;;;;20.73;100.00;97841.97;5055601;28;20460;-79
2022/09/08 11:03:39;;;;;;;;;;;;;;;20.41;100.00;97834.31;5073495;28;20323;-78
2022/09/08 11:06:15;;;;;;;;;;;;;;;20.99;100.00;97839.56;5073526;28;20333;-78
2022/09/08 11:08:42;;;;;;;;;;;;;;;20.61;100.00;97831.19;5077231;28;19934;-79
2022/09/08 11:11:36;;;;;;;;;;;;;;;21.31;100.00;97823.66;5077088;28;19995;-79
2022/09/08 11:14:15;;;;;;;;;;;;;;;20.66;100.00;97833.22;5058755;28;19925;-80
2022/09/08 11:16:49;;;;;;;;;;;;;;;20.78;100.00;97823.38;5060063;28;19929;-79
2022/09/08 11:19:32;;;;;;;;;;;;;;;20.48;100.00;97816.75;5077385;28;19924;-79
2022/09/08 11:22:14;;;;;;;;;;;;;;;19.66;100.00;97821.97;5077112;28;20383;-80
2022/09/08 11:24:51;;;;;;;;;;;;;;;20.25;100.00;97821.69;5076934;28;19929;-80
2022/09/08 11:27:21;;;;;;;;;;;;;;;20.75;100.00;97816.66;5076962;28;19925;-79
2022/09/08 11:30:07;;;;;;;;;;;;;;;20.36;100.00;97821.69;5077214;28;19925;-79
2022/09/08 11:32:36;;;;;;;;;;;;;;;19.43;100.00;97828.88;5076900;28;19924;-79
2022/09/08 11:35:22;;;;;;;;;;;;;;;19.47;100.00;97831.47;5059075;28;19925;-80
2022/09/08 11:38:15;;;;;;;;;;;;;;;19.11;100.00;97835.22;5059111;28;19942;-80
2022/09/08 11:41:06;;;;;;;;;;;;;;;19.43;100.00;97828.88;5040247;28;19931;-80
2022/09/08 11:43:33;;;;;;;;;;;;;;;19.17;100.00;97830.34;5076725;28;19925;-80
2022/09/08 11:46:00;;;;;;;;;;;;;;;18.94;100.00;97834.38;5042474;28;19924;-80
2022/09/08 11:48:43;;;;;;;;;;;;;;;18.57;100.00;97834.47;5076666;28;19924;-80
2022/09/08 11:51:22;;;;;;;;;;;;;;;18.63;100.00;97831.69;5076604;28;19931;-80
2022/09/08 11:54:39;;;;;;;;;;;;;;;18.50;100.00;97831.34;5058703;28;20295;-79
2022/09/08 11:57:20;;;;;;;;;;;;;;;18.77;100.00;97830.69;4978666;28;19956;-80
2022/09/08 12:00:02;;;;;;;;;;;;;;;18.78;100.00;97815.28;5012393;28;20405;-80
2022/09/08 12:02:39;;;;;;;;;;;;;;;19.34;100.00;97814.22;5014351;28;20011;-80
2022/09/08 12:05:17;;;;;;;;;;;;;;;19.76;100.00;97814.00;5014154;28;19929;-80
2022/09/08 12:08:20;;;;;;;;;;;;;;;19.57;100.00;97813.72;5014230;28;19926;-80
2022/09/08 12:11:11;;;;;;;;;;;;;;;20.17;100.00;97808.56;5013781;28;19929;-80
2022/09/08 12:13:38;;;;;;;;;;;;;;;20.78;100.00;97800.69;5014293;28;19926;-80
2022/09/08 12:16:20;;;;;;;;;;;;;;;20.46;100.00;97790.97;5013813;28;19950;-80
2022/09/08 12:18:53;;;;;;;;;;;;;;;21.26;100.00;97790.38;5012599;28;19976;-81
2022/09/08 12:21:26;;;;;;;;;;;;;;;21.74;100.00;97789.81;4997032;28;20032;-80
2022/09/08 12:23:53;;;;;;;;;;;;;;;21.82;100.00;97785.09;5013567;28;20024;-80
2022/09/08 12:26:23;;;;;;;;;;;;;;;21.28;100.00;97784.19;4997452;28;20340;-79
2022/09/08 12:29:03;;;;;;;;;;;;;;;21.60;100.00;97790.91;5014053;28;19984;-79
2022/09/08 12:31:44;;;;;;;;;;;;;;;21.42;100.00;97777.34;5011665;28;20373;-79
2022/09/08 12:34:30;;;;;;;;;;;;;;;21.76;100.00;97775.84;5065621;28;19924;-80
2022/09/08 12:37:10;;;;;;;;;;;;;;;22.68;100.00;97769.75;5095661;28;19931;-81
2022/09/08 12:39:42;;;;;;;;;;;;;;;22.62;100.00;97774.75;5077743;28;19931;-81
2022/09/08 12:42:12;;;;;;;;;;;;;;;21.37;100.00;97761.13;5078087;28;19930;-80
2022/09/08 12:44:46;;;;;;;;;;;;;;;22.63;100.00;97762.03;5095637;28;19924;-80
2022/09/08 12:47:13;;;;;;;;;;;;;;;22.81;100.00;97755.59;5096201;28;19928;-81
2022/09/08 12:49:51;;;;;;;;;;;;;;;23.02;100.00;97753.75;5051063;28;19924;-81
2022/09/08 12:52:38;;;;;;;;;;;;;;;23.08;100.00;97756.53;5057407;28;20291;-81
2022/09/08 12:55:05;;;;;;;;;;;;;;;23.13;100.00;97756.47;5047980;28;19924;-80
2022/09/08 12:57:38;;;;;;;;;;;;;;;22.92;100.00;97755.47;5093955;28;19931;-80
2022/09/08 13:00:11;;;;;;;;;;;;;;;23.10;100.00;97746.13;5094440;28;19953;-81
2022/09/08 13:02:41;;;;;;;;;;;;;;;23.03;100.00;97749.63;5095413;28;19959;-80
2022/09/08 13:05:27;;;;;;;;;;;;;;;22.81;100.00;97749.91;5076927;28;19964;-80
2022/09/08 13:07:59;;;;;;;;;;;;;;;21.96;100.00;97749.03;5077350;28;20352;-80
2022/09/08 13:10:34;;;;;;;;;;;;;;;22.22;100.00;97749.31;5095415;28;20345;-80
2022/09/08 13:13:08;;;;;;;;;;;;;;;22.41;100.00;97753.75;5095364;28;20394;-80